createdAt,value
2022-08-19T00:00:26.135Z,99991.34
2022-08-19T00:03:29.157Z,99998.50
2022-08-19T00:06:32.711Z,99991.19
2022-08-19T00:09:36.634Z,99976.50
2022-08-19T00:12:40.261Z,99994.44
2022-08-19T00:15:51.318Z,100006.28
2022-08-19T00:18:54.529Z,100013.22
2022-08-19T00:21:57.501Z,100004.25
2022-08-19T00:25:00.681Z,100007.47
2022-08-19T00:28:06.341Z,99995.22
2022-08-19T00:31:11.296Z,99987.88
2022-08-19T00:34:16.189Z,99994.88
2022-08-19T00:37:19.141Z,99987.53
2022-08-19T00:40:22.672Z,99993.19
2022-08-19T00:43:28.219Z,99977.72
2022-08-19T00:46:33.744Z,99962.59
2022-08-19T00:49:41.714Z,99937.69
2022-08-19T00:52:49.648Z,99935.03
2022-08-19T00:55:55.697Z,99917.09
2022-08-19T00:59:00.865Z,99915.66
2022-08-19T01:02:05.982Z,99915.25
2022-08-19T01:05:13.662Z,99935.00
2022-08-19T01:08:19.828Z,99929.13
2022-08-19T01:11:23.050Z,99933.22
2022-08-19T01:14:26.968Z,99944.19
2022-08-19T01:17:31.865Z,99950.31
2022-08-19T01:20:35.402Z,99945.47
2022-08-19T01:23:45.358Z,99957.31
2022-08-19T01:26:50.119Z,99960.13
2022-08-19T01:29:54.016Z,99962.97
2022-08-19T01:32:57.663Z,99959.28
2022-08-19T01:36:08.390Z,99945.81
2022-08-19T01:39:16.599Z,99957.94
2022-08-19T01:42:20.131Z,99929.38
2022-08-19T01:45:35.444Z,99907.72
2022-08-19T01:48:41.413Z,99892.41
2022-08-19T01:51:44.401Z,99877.88
2022-08-19T01:54:48.750Z,99878.66
2022-08-19T01:57:56.554Z,99831.81
2022-08-19T02:01:00.675Z,99808.16
2022-08-19T02:04:04.605Z,99790.41
2022-08-19T02:07:08.894Z,99797.06
2022-08-19T02:10:19.666Z,99800.91
2022-08-19T02:13:26.233Z,99782.25
2022-08-19T02:16:31.256Z,99757.22
2022-08-19T02:19:34.707Z,99755.38
2022-08-19T02:22:37.752Z,99725.44
2022-08-19T02:25:43.236Z,99725.03
2022-08-19T02:28:46.667Z,99715.66
2022-08-19T02:31:49.877Z,99719.31
2022-08-19T02:34:53.203Z,99722.78
2022-08-19T02:38:13.604Z,99729.72
2022-08-19T02:41:21.172Z,99733.13
2022-08-19T02:44:31.603Z,99742.91
2022-08-19T02:47:35.766Z,99744.56
2022-08-19T02:50:40.507Z,99736.22
2022-08-19T02:53:55.808Z,99728.69
2022-08-19T02:57:00.710Z,99735.22
2022-08-19T03:00:08.887Z,99738.47
2022-08-19T03:03:12.388Z,99734.84
2022-08-19T03:06:18.637Z,99732.19
2022-08-19T03:09:22.353Z,99737.66
2022-08-19T03:12:26.882Z,99741.06
2022-08-19T03:15:30.004Z,99735.19
2022-08-19T03:18:32.992Z,99735.56
2022-08-19T03:21:37.404Z,99729.44
2022-08-19T03:24:41.338Z,99716.78
2022-08-19T03:27:46.882Z,99709.44
2022-08-19T03:31:01.801Z,99717.34
2022-08-19T03:34:05.095Z,99729.75
2022-08-19T03:37:13.900Z,99726.88
2022-08-19T03:40:17.093Z,99713.88
2022-08-19T03:43:22.072Z,99714.69
2022-08-19T03:46:29.187Z,99722.38
2022-08-19T03:49:35.995Z,99724.25
2022-08-19T03:52:40.383Z,99728.28
2022-08-19T03:55:49.939Z,99717.53
2022-08-19T03:58:54.523Z,99712.84
2022-08-19T04:02:01.376Z,99709.81
2022-08-19T04:05:04.635Z,99711.66
2022-08-19T04:08:11.964Z,99710.44
2022-08-19T04:11:19.339Z,99717.19
2022-08-19T04:14:26.493Z,99720.44
2022-08-19T04:17:29.541Z,99736.91
2022-08-19T04:20:32.903Z,99734.28
2022-08-19T04:23:37.102Z,99730.06
2022-08-19T04:26:48.774Z,99732.53
2022-08-19T04:29:56.016Z,99736.16
2022-08-19T04:32:58.967Z,99737.56
2022-08-19T04:36:01.953Z,99743.13
2022-08-19T04:39:09.166Z,99732.53
2022-08-19T04:42:30.907Z,99734.16
2022-08-19T04:45:39.491Z,99729.47
2022-08-19T04:48:49.481Z,99734.97
2022-08-19T04:51:55.149Z,99727.06
2022-08-19T04:54:58.113Z,99731.13
2022-08-19T04:58:01.047Z,99725.88
2022-08-19T05:01:06.874Z,99724.66
2022-08-19T05:04:09.903Z,99720.16
2022-08-19T05:07:13.752Z,99731.19
2022-08-19T05:10:16.792Z,99727.31
2022-08-19T05:13:21.367Z,99731.59
2022-08-19T05:16:28.161Z,99738.94
2022-08-19T05:19:48.441Z,99729.81
2022-08-19T05:22:51.477Z,99729.59
2022-08-19T05:25:54.556Z,99718.59
2022-08-19T05:28:57.800Z,99709.88
2022-08-19T05:32:03.428Z,99711.31
2022-08-19T05:35:08.015Z,99706.44
2022-08-19T05:38:12.122Z,99722.72
2022-08-19T05:41:17.510Z,99724.19
2022-08-19T05:44:22.653Z,99736.19
2022-08-19T05:47:26.954Z,99744.13
2022-08-19T05:50:30.872Z,99754.13
2022-08-19T05:53:34.592Z,99751.09
2022-08-19T05:56:40.680Z,99751.31
2022-08-19T05:59:46.671Z,99753.75
2022-08-19T06:02:52.073Z,99771.09
2022-08-19T06:05:56.001Z,99774.41
2022-08-19T06:08:59.001Z,99781.31
2022-08-19T06:12:03.551Z,99799.28
2022-08-19T06:15:11.120Z,99804.78
2022-08-19T06:18:16.440Z,99804.78
2022-08-19T06:21:21.054Z,99794.81
2022-08-19T06:24:27.011Z,99795.44
2022-08-19T06:27:31.774Z,99792.56
2022-08-19T06:30:34.778Z,99806.44
2022-08-19T06:33:40.754Z,99804.41
2022-08-19T06:36:48.142Z,99811.94
2022-08-19T06:39:51.950Z,99821.56
2022-08-19T06:42:57.267Z,99824.41
2022-08-19T06:46:02.057Z,99848.88
2022-08-19T06:49:07.300Z,99858.28
2022-08-19T06:52:15.283Z,99865.59
2022-08-19T06:55:18.501Z,99879.50
2022-08-19T06:58:22.229Z,99871.94
2022-08-19T07:01:25.473Z,99889.50
2022-08-19T07:04:33.803Z,99892.94
2022-08-19T07:07:37.002Z,99890.13
2022-08-19T07:10:44.900Z,99876.91
2022-08-19T07:13:49.555Z,99864.06
2022-08-19T07:16:59.044Z,99895.88
2022-08-19T07:20:07.008Z,99893.88
2022-08-19T07:23:16.576Z,99903.84
2022-08-19T07:26:27.948Z,99903.03
2022-08-19T07:29:34.330Z,99887.94
2022-08-19T07:32:38.375Z,99894.06
2022-08-19T07:35:43.050Z,99908.53
2022-08-19T07:38:49.872Z,99898.75
2022-08-19T07:41:53.321Z,99936.53
2022-08-19T07:44:56.324Z,99921.41
2022-08-19T07:47:59.918Z,99941.03
2022-08-19T07:51:09.164Z,99926.94
2022-08-19T07:54:12.555Z,99938.38
2022-08-19T07:57:15.840Z,99935.91
2022-08-19T08:00:23.146Z,99935.53
2022-08-19T08:03:43.246Z,99933.25
2022-08-19T08:07:05.421Z,99940.00
2022-08-19T08:10:13.978Z,99942.03
2022-08-19T08:13:24.138Z,99966.56
2022-08-19T08:16:32.055Z,99977.19
2022-08-19T08:19:35.476Z,99974.31
2022-08-19T08:23:02.575Z,99981.88
2022-08-19T08:26:05.709Z,99978.81
2022-08-19T08:29:13.045Z,99990.28
2022-08-19T08:32:16.570Z,99989.41
2022-08-19T08:35:22.828Z,100006.78
2022-08-19T08:38:28.214Z,100016.16
2022-08-19T08:41:48.821Z,100034.75
2022-08-19T08:45:00.409Z,100047.41
2022-08-19T08:48:22.033Z,100062.13
2022-08-19T08:51:35.378Z,100060.47
2022-08-19T08:54:48.941Z,100074.81
2022-08-19T08:58:03.743Z,100098.97
2022-08-19T09:01:06.988Z,100109.38
2022-08-19T09:04:10.352Z,100109.59
2022-08-19T09:07:35.350Z,100094.03
2022-08-19T09:10:46.219Z,100096.91
2022-08-19T09:14:47.392Z,100084.22
2022-08-19T09:17:42.916Z,100087.06
2022-08-19T09:20:47.892Z,100105.88
2022-08-19T09:23:51.086Z,100122.63
2022-08-19T09:26:56.502Z,100113.66
2022-08-19T09:30:01.222Z,100111.78
2022-08-19T09:33:05.502Z,100107.88
2022-08-19T09:36:12.878Z,100122.19
2022-08-19T09:39:24.857Z,100134.50
2022-08-19T09:42:50.313Z,100118.94
2022-08-19T09:45:54.740Z,100140.63
2022-08-19T09:49:03.010Z,100131.38
2022-08-19T09:52:13.693Z,100135.03
2022-08-19T09:55:16.990Z,100147.59
2022-08-19T09:58:26.650Z,100137.13
2022-08-19T10:01:32.713Z,100105.13
2022-08-19T10:04:53.463Z,100136.69
2022-08-19T10:07:56.893Z,100119.88
2022-08-19T10:11:28.373Z,100146.91
2022-08-19T10:14:26.657Z,100143.03
2022-08-19T10:17:31.517Z,100140.63
2022-08-19T10:20:37.574Z,100127.16
2022-08-19T10:23:46.086Z,100106.22
2022-08-19T10:26:57.247Z,100126.28
2022-08-19T10:30:04.857Z,100144.22
2022-08-19T10:33:14.953Z,100146.22
2022-08-19T10:36:21.258Z,100134.72
2022-08-19T10:39:24.304Z,100150.97
2022-08-19T10:42:33.968Z,100163.22
2022-08-19T10:45:38.263Z,100188.50
2022-08-19T10:48:56.610Z,100180.31
2022-08-19T10:52:18.802Z,100158.88
2022-08-19T10:55:43.544Z,100165.47
2022-08-19T10:58:46.518Z,100165.91
2022-08-19T11:01:53.026Z,100153.25
2022-08-19T11:05:01.836Z,100145.47
2022-08-19T11:08:17.686Z,100133.44
2022-08-19T11:11:26.535Z,100154.09
2022-08-19T11:14:32.156Z,100163.13
2022-08-19T11:17:41.593Z,100136.97
2022-08-19T11:20:44.529Z,100143.94
2022-08-19T11:23:49.764Z,100125.13
2022-08-19T11:26:59.870Z,100133.69
2022-08-19T11:30:04.526Z,100143.97
2022-08-19T11:33:11.886Z,100134.16
2022-08-19T11:36:15.244Z,100130.84
2022-08-19T11:39:22.588Z,100139.00
2022-08-19T11:42:42.910Z,100120.91
2022-08-19T11:45:45.882Z,100165.16
2022-08-19T11:48:51.782Z,100166.03
2022-08-19T11:51:55.200Z,100161.72
2022-08-19T11:54:58.168Z,100184.03
2022-08-19T11:58:01.164Z,100191.78
2022-08-19T12:01:08.253Z,100203.81
2022-08-19T12:04:12.928Z,100205.44
2022-08-19T12:07:16.065Z,100230.25
2022-08-19T12:10:20.665Z,100223.88
2022-08-19T12:13:26.402Z,100214.69
2022-08-19T12:16:31.522Z,100232.69
2022-08-19T12:19:40.703Z,100215.38
2022-08-19T12:22:44.426Z,100275.44
2022-08-19T12:25:51.088Z,100250.22
2022-08-19T12:28:54.920Z,100276.09
2022-08-19T12:32:02.088Z,100257.25
2022-08-19T12:35:10.113Z,100262.16
2022-08-19T12:38:15.525Z,100266.66
2022-08-19T12:41:19.720Z,100264.97
2022-08-19T12:44:29.607Z,100294.72
2022-08-19T12:47:35.718Z,100269.53
2022-08-19T12:50:43.969Z,100246.00
2022-08-19T12:53:48.345Z,100248.84
2022-08-19T12:56:51.296Z,100264.59
2022-08-19T12:59:55.375Z,100263.72
2022-08-19T13:02:58.342Z,100277.81
2022-08-19T13:06:02.697Z,100287.06
2022-08-19T13:09:06.394Z,100309.66
2022-08-19T13:12:13.868Z,100317.25
2022-08-19T13:15:23.798Z,100296.34
2022-08-19T13:18:27.345Z,100281.97
2022-08-19T13:21:31.756Z,100291.38
2022-08-19T13:24:35.041Z,100337.28
2022-08-19T13:27:39.053Z,100311.69
2022-08-19T13:30:59.674Z,100321.47
2022-08-19T13:34:03.202Z,100331.53
2022-08-19T13:37:08.349Z,100319.03
2022-08-19T13:40:16.998Z,100327.22
2022-08-19T13:43:22.868Z,100315.56
2022-08-19T13:46:28.260Z,100301.38
2022-08-19T13:49:31.907Z,100305.91
2022-08-19T13:52:36.193Z,100307.13
2022-08-19T13:55:40.698Z,100327.22
2022-08-19T13:58:44.367Z,100323.16
2022-08-19T14:01:47.354Z,100306.34
2022-08-19T14:04:50.374Z,100314.16
2022-08-19T14:07:54.873Z,100305.75
2022-08-19T14:10:58.002Z,100299.63
2022-08-19T14:14:01.071Z,100308.84
2022-08-19T14:17:04.136Z,100302.69
2022-08-19T14:20:11.433Z,100292.44
2022-08-19T14:23:22.549Z,100313.16
2022-08-19T14:26:25.976Z,100296.56
2022-08-19T14:29:29.856Z,100298.19
2022-08-19T14:32:32.931Z,100306.81
2022-08-19T14:35:36.716Z,100312.13
2022-08-19T14:38:41.287Z,100305.97
2022-08-19T14:41:44.316Z,100299.84
2022-08-19T14:44:47.657Z,100305.78
2022-08-19T14:47:50.666Z,100314.97
2022-08-19T14:50:54.110Z,100309.88
2022-08-19T14:53:58.868Z,100320.31
2022-08-19T14:57:01.862Z,100308.44
2022-08-19T15:00:06.997Z,100310.69
2022-08-19T15:03:09.982Z,100316.22
2022-08-19T15:06:13.278Z,100328.50
2022-08-19T15:09:17.582Z,100337.72
2022-08-19T15:12:22.169Z,100319.09
2022-08-19T15:15:25.463Z,100345.09
2022-08-19T15:18:28.525Z,100353.88
2022-08-19T15:21:33.593Z,100344.69
2022-08-19T15:24:48.017Z,100351.84
2022-08-19T15:27:52.199Z,100346.13
2022-08-19T15:30:55.558Z,100340.97
2022-08-19T15:33:59.279Z,100345.28
2022-08-19T15:37:04.511Z,100342.59
2022-08-19T15:40:10.712Z,100349.16
2022-08-19T15:43:13.739Z,100365.31
2022-08-19T15:46:19.778Z,100358.34
2022-08-19T15:49:22.859Z,100343.63
2022-08-19T15:52:27.204Z,100334.63
2022-08-19T15:55:35.176Z,100339.13
2022-08-19T15:58:56.987Z,100337.06
2022-08-19T16:02:17.324Z,100315.41
2022-08-19T16:05:41.213Z,100322.97
2022-08-19T16:08:48.908Z,100329.66
2022-08-19T16:11:56.883Z,100326.38
2022-08-19T16:15:00.268Z,100314.50
2022-08-19T16:18:03.670Z,100312.81
2022-08-19T16:21:08.103Z,100298.13
2022-08-19T16:24:14.384Z,100299.31
2022-08-19T16:27:18.787Z,100306.69
2022-08-19T16:30:21.991Z,100317.09
2022-08-19T16:33:24.952Z,100303.88
2022-08-19T16:36:28.539Z,100293.22
2022-08-19T16:39:32.080Z,100305.88
2022-08-19T16:42:36.806Z,100300.16
2022-08-19T16:45:40.018Z,100300.56
2022-08-19T16:48:47.191Z,100305.50
2022-08-19T16:51:50.394Z,100315.69
2022-08-19T16:54:53.863Z,100308.53
2022-08-19T16:57:58.122Z,100310.81
2022-08-19T17:01:04.208Z,100317.75
2022-08-19T17:04:07.443Z,100320.00
2022-08-19T17:07:11.219Z,100317.09
2022-08-19T17:10:14.546Z,100301.16
2022-08-19T17:13:19.109Z,100293.53
2022-08-19T17:16:25.970Z,100278.81
2022-08-19T17:19:29.254Z,100271.47
2022-08-19T17:22:32.432Z,100278.38
2022-08-19T17:25:35.942Z,100281.19
2022-08-19T17:28:40.968Z,100271.41
2022-08-19T17:31:46.733Z,100275.28
2022-08-19T17:34:49.918Z,100264.06
2022-08-19T17:37:53.339Z,100269.97
2022-08-19T17:41:01.513Z,100265.22
2022-08-19T17:44:07.097Z,100271.81
2022-08-19T17:47:10.977Z,100286.88
2022-08-19T17:50:14.193Z,100274.19
2022-08-19T17:53:17.907Z,100268.66
2022-08-19T17:56:23.576Z,100266.84
2022-08-19T17:59:30.108Z,100263.16
2022-08-19T18:02:33.832Z,100267.06
2022-08-19T18:05:44.705Z,100271.75
2022-08-19T18:08:49.108Z,100282.94
2022-08-19T18:11:54.671Z,100289.84
2022-08-19T18:15:00.225Z,100283.44
2022-08-19T18:18:03.540Z,100294.66
2022-08-19T18:21:18.210Z,100288.31
2022-08-19T18:24:21.197Z,100300.09
2022-08-19T18:27:24.604Z,100299.50
2022-08-19T18:30:34.091Z,100301.31
2022-08-19T18:33:44.292Z,100316.00
2022-08-19T18:36:53.967Z,100310.28
2022-08-19T18:40:15.293Z,100311.72
2022-08-19T18:43:36.484Z,100309.44
2022-08-19T18:46:58.203Z,100314.13
2022-08-19T18:50:08.081Z,100331.66
2022-08-19T18:53:16.139Z,100337.22
2022-08-19T18:56:23.846Z,100342.53
2022-08-19T18:59:29.573Z,100346.19
2022-08-19T19:02:39.416Z,100342.03
2022-08-19T19:05:44.238Z,100344.44
2022-08-19T19:08:48.258Z,100346.72
2022-08-19T19:11:55.772Z,100345.91
2022-08-19T19:14:58.950Z,100344.50
2022-08-19T19:18:03.308Z,100351.03
2022-08-19T19:21:07.650Z,100346.91
2022-08-19T19:24:13.903Z,100356.69
2022-08-19T19:27:20.429Z,100336.44
2022-08-19T19:30:25.767Z,100339.44
2022-08-19T19:33:30.078Z,100339.53
2022-08-19T19:36:33.084Z,100342.81
2022-08-19T19:39:46.679Z,100334.59
2022-08-19T19:42:51.887Z,100350.72
2022-08-19T19:45:55.175Z,100345.56
2022-08-19T19:49:00.378Z,100348.41
2022-08-19T19:52:03.750Z,100357.47
2022-08-19T19:55:09.222Z,100350.84
2022-08-19T19:58:12.294Z,100345.22
2022-08-19T20:01:17.555Z,100345.56
2022-08-19T20:04:29.051Z,100330.47
2022-08-19T20:07:46.049Z,100335.22
2022-08-19T20:10:49.054Z,100346.41
2022-08-19T20:13:52.028Z,100344.03
2022-08-19T20:16:57.033Z,100359.19
2022-08-19T20:20:01.599Z,100360.38
2022-08-19T20:23:04.658Z,100364.03
2022-08-19T20:26:08.480Z,100361.59
2022-08-19T20:29:39.639Z,100359.94
2022-08-19T20:32:46.378Z,100346.78
2022-08-19T20:35:50.703Z,100345.56
2022-08-19T20:38:53.755Z,100347.13
2022-08-19T20:41:57.159Z,100345.13
2022-08-19T20:45:00.135Z,100346.31
2022-08-19T20:48:04.313Z,100344.06
2022-08-19T20:51:10.518Z,100333.72
2022-08-19T20:54:14.326Z,100340.66
2022-08-19T20:57:17.524Z,100336.59
2022-08-19T21:00:20.774Z,100341.00
2022-08-19T21:03:27.255Z,100320.19
2022-08-19T21:06:31.540Z,100322.19
2022-08-19T21:09:35.760Z,100317.28
2022-08-19T21:12:40.629Z,100311.19
2022-08-19T21:15:44.386Z,100314.50
2022-08-19T21:18:47.783Z,100325.44
2022-08-19T21:21:52.471Z,100320.72
2022-08-19T21:24:55.468Z,100322.47
2022-08-19T21:27:58.866Z,100328.22
2022-08-19T21:31:02.490Z,100341.47
2022-08-19T21:34:05.991Z,100357.59
2022-08-19T21:37:19.002Z,100353.91
2022-08-19T21:40:29.234Z,100365.34
2022-08-19T21:43:32.546Z,100364.88
2022-08-19T21:46:36.107Z,100358.47
2022-08-19T21:49:39.180Z,100338.50
2022-08-19T21:52:44.157Z,100348.63
2022-08-19T21:55:52.795Z,100338.00
2022-08-19T21:58:56.699Z,100333.06
2022-08-19T22:02:15.855Z,100318.38
2022-08-19T22:05:24.456Z,100328.16
2022-08-19T22:08:29.757Z,100320.31
2022-08-19T22:11:32.816Z,100297.88
2022-08-19T22:14:36.036Z,100289.66
2022-08-19T22:17:40.266Z,100293.34
2022-08-19T22:20:45.330Z,100290.09
2022-08-19T22:23:49.662Z,100289.28
2022-08-19T22:26:52.668Z,100286.44
2022-08-19T22:29:55.639Z,100300.44
2022-08-19T22:33:01.232Z,100289.28
2022-08-19T22:36:07.456Z,100297.66
2022-08-19T22:39:11.860Z,100299.13
2022-08-19T22:42:18.965Z,100310.97
2022-08-19T22:45:22.582Z,100306.50
2022-08-19T22:48:29.670Z,100311.56
2022-08-19T22:51:46.854Z,100298.13
2022-08-19T22:54:54.585Z,100287.13
2022-08-19T22:57:59.176Z,100290.84
2022-08-19T23:01:02.602Z,100294.38
2022-08-19T23:04:06.023Z,100295.00
2022-08-19T23:07:09.288Z,100295.22
2022-08-19T23:10:13.937Z,100301.25
2022-08-19T23:13:31.789Z,100309.97
2022-08-19T23:16:35.640Z,100304.41
2022-08-19T23:19:39.347Z,100301.16
2022-08-19T23:22:44.042Z,100306.44
2022-08-19T23:25:50.066Z,100308.97
2022-08-19T23:29:10.787Z,100313.53
2022-08-19T23:32:16.145Z,100312.63
2022-08-19T23:35:19.730Z,100309.50
2022-08-19T23:38:23.632Z,100302.53
2022-08-19T23:41:28.505Z,100294.97
2022-08-19T23:44:31.615Z,100295.59
2022-08-19T23:47:34.839Z,100290.03
2022-08-19T23:50:40.984Z,100279.00
2022-08-19T23:53:44.946Z,100283.41
2022-08-19T23:56:49.217Z,100271.97
2022-08-19T23:59:52.189Z,100264.22
